createdAt,value
2022-11-21T00:01:20.815Z,9.30
2022-11-21T00:03:49.153Z,9.30
2022-11-21T00:06:17.937Z,9.32
2022-11-21T00:08:46.491Z,9.34
2022-11-21T00:11:14.966Z,9.34
2022-11-21T00:13:43.834Z,9.36
2022-11-21T00:16:15.176Z,9.35
2022-11-21T00:18:45.565Z,9.35
2022-11-21T00:21:15.821Z,9.34
2022-11-21T00:23:43.861Z,9.34
2022-11-21T00:26:13.464Z,9.32
2022-11-21T00:28:41.755Z,9.33
2022-11-21T00:31:09.818Z,9.33
2022-11-21T00:33:39.220Z,9.34
2022-11-21T00:36:10.240Z,9.33
2022-11-21T00:38:39.054Z,9.34
2022-11-21T00:41:07.423Z,9.33
2022-11-21T00:43:35.958Z,9.33
2022-11-21T00:46:04.452Z,9.33
2022-11-21T00:48:33.479Z,9.33
2022-11-21T00:51:01.973Z,9.33
2022-11-21T00:53:31.737Z,9.32
2022-11-21T00:56:00.340Z,9.32
2022-11-21T00:58:28.722Z,9.31
2022-11-21T01:01:04.307Z,9.30
2022-11-21T01:03:34.052Z,9.30
2022-11-21T01:06:03.909Z,9.31
2022-11-21T01:08:33.432Z,9.29
2022-11-21T01:11:05.112Z,9.28
2022-11-21T01:13:33.941Z,9.29
2022-11-21T01:16:05.593Z,9.28
2022-11-21T01:18:33.682Z,9.28
2022-11-21T01:21:02.411Z,9.27
2022-11-21T01:23:30.545Z,9.26
2022-11-21T01:26:04.126Z,9.27
2022-11-21T01:28:32.837Z,9.26
2022-11-21T01:31:07.653Z,9.25
2022-11-21T01:33:36.346Z,9.23
2022-11-21T01:36:09.637Z,9.21
2022-11-21T01:38:37.749Z,9.18
2022-11-21T01:41:07.191Z,9.15
2022-11-21T01:43:35.842Z,9.12
2022-11-21T01:46:10.425Z,9.07
2022-11-21T01:48:42.237Z,9.05
2022-11-21T01:51:16.919Z,9.02
2022-11-21T01:53:48.231Z,9.00
2022-11-21T01:56:17.732Z,8.98
2022-11-21T01:58:47.850Z,8.98
2022-11-21T02:01:16.306Z,8.96
2022-11-21T02:03:47.736Z,8.95
2022-11-21T02:06:15.992Z,8.95
2022-11-21T02:08:46.914Z,8.93
2022-11-21T02:11:22.516Z,8.91
2022-11-21T02:13:50.615Z,8.88
2022-11-21T02:16:18.613Z,8.87
2022-11-21T02:18:46.719Z,8.88
2022-11-21T02:21:23.707Z,8.87
2022-11-21T02:24:00.654Z,8.87
2022-11-21T02:26:31.305Z,8.85
2022-11-21T02:29:00.312Z,8.84
2022-11-21T02:31:28.295Z,8.83
2022-11-21T02:33:56.577Z,8.82
2022-11-21T02:36:42.764Z,8.81
2022-11-21T02:39:15.804Z,8.79
2022-11-21T02:41:52.772Z,8.81
2022-11-21T02:44:26.304Z,8.85
2022-11-21T02:46:54.638Z,8.89
2022-11-21T02:49:31.657Z,8.94
2022-11-21T02:51:59.681Z,8.97
2022-11-21T02:54:27.976Z,9.01
2022-11-21T02:56:57.930Z,9.03
2022-11-21T02:59:26.224Z,9.07
2022-11-21T03:01:54.543Z,9.09
2022-11-21T03:04:22.790Z,9.12
2022-11-21T03:06:50.790Z,9.13
2022-11-21T03:09:18.824Z,9.15
2022-11-21T03:11:47.011Z,9.16
2022-11-21T03:14:16.409Z,9.17
2022-11-21T03:16:44.672Z,9.15
2022-11-21T03:19:12.990Z,9.13
2022-11-21T03:21:40.974Z,9.12
2022-11-21T03:24:09.549Z,9.09
2022-11-21T03:26:37.582Z,9.07
2022-11-21T03:29:05.612Z,9.06
2022-11-21T03:31:35.041Z,9.05
2022-11-21T03:34:03.090Z,9.03
2022-11-21T03:36:31.120Z,9.03
2022-11-21T03:38:59.842Z,9.02
2022-11-21T03:41:31.488Z,9.03
2022-11-21T03:44:00.635Z,9.05
2022-11-21T03:46:29.207Z,9.05
2022-11-21T03:48:59.238Z,9.06
2022-11-21T03:51:28.262Z,9.06
2022-11-21T03:53:56.290Z,9.07
2022-11-21T03:56:24.430Z,9.06
2022-11-21T03:58:52.816Z,9.08
2022-11-21T04:01:21.426Z,9.10
2022-11-21T04:03:49.802Z,9.12
2022-11-21T04:06:21.206Z,9.15
2022-11-21T04:08:50.319Z,9.19
2022-11-21T04:11:19.122Z,9.21
2022-11-21T04:13:47.107Z,9.23
2022-11-21T04:16:15.076Z,9.26
2022-11-21T04:18:43.365Z,9.29
2022-11-21T04:21:11.631Z,9.30
2022-11-21T04:23:41.158Z,9.33
2022-11-21T04:26:09.410Z,9.36
2022-11-21T04:28:37.404Z,9.41
2022-11-21T04:31:10.297Z,9.44
2022-11-21T04:33:39.500Z,9.44
2022-11-21T04:36:08.107Z,9.44
2022-11-21T04:38:36.386Z,9.43
2022-11-21T04:41:05.901Z,9.43
2022-11-21T04:43:33.981Z,9.42
2022-11-21T04:46:02.029Z,9.43
2022-11-21T04:48:30.116Z,9.42
2022-11-21T04:50:58.122Z,9.42
2022-11-21T04:53:26.120Z,9.43
2022-11-21T04:55:54.175Z,9.44
2022-11-21T04:58:23.622Z,9.44
2022-11-21T05:00:51.642Z,9.45
2022-11-21T05:03:19.652Z,9.44
2022-11-21T05:05:47.815Z,9.46
2022-11-21T05:08:15.986Z,9.47
2022-11-21T05:11:02.540Z,9.47
2022-11-21T05:13:31.924Z,9.49
2022-11-21T05:15:59.988Z,9.50
2022-11-21T05:18:27.999Z,9.51
2022-11-21T05:20:56.002Z,9.51
2022-11-21T05:23:24.063Z,9.52
2022-11-21T05:25:52.067Z,9.53
2022-11-21T05:28:23.063Z,9.55
2022-11-21T05:30:52.463Z,9.55
2022-11-21T05:33:20.580Z,9.57
2022-11-21T05:35:48.762Z,9.57
2022-11-21T05:38:16.748Z,9.58
2022-11-21T05:40:44.804Z,9.61
2022-11-21T05:43:30.673Z,9.62
2022-11-21T05:46:00.065Z,9.63
2022-11-21T05:48:28.130Z,9.62
2022-11-21T05:50:56.251Z,9.63
2022-11-21T05:53:24.284Z,9.64
2022-11-21T05:55:52.225Z,9.64
2022-11-21T05:58:20.216Z,9.64
2022-11-21T06:00:48.506Z,9.64
2022-11-21T06:03:30.641Z,9.65
2022-11-21T06:06:05.836Z,9.64
2022-11-21T06:08:35.614Z,9.64
2022-11-21T06:11:04.442Z,9.64
2022-11-21T06:13:33.869Z,9.64
2022-11-21T06:16:03.549Z,9.64
2022-11-21T06:18:35.002Z,9.63
2022-11-21T06:21:03.952Z,9.62
2022-11-21T06:23:32.464Z,9.62
2022-11-21T06:26:01.845Z,9.62
2022-11-21T06:28:33.743Z,9.64
2022-11-21T06:31:04.693Z,9.64
2022-11-21T06:33:34.743Z,9.64
2022-11-21T06:36:04.055Z,9.63
2022-11-21T06:38:32.361Z,9.63
2022-11-21T06:41:00.391Z,9.62
2022-11-21T06:43:28.801Z,9.60
2022-11-21T06:45:58.859Z,9.59
2022-11-21T06:48:26.862Z,9.58
2022-11-21T06:50:56.279Z,9.57
2022-11-21T06:53:24.302Z,9.56
2022-11-21T06:55:52.345Z,9.56
2022-11-21T06:58:20.323Z,9.55
2022-11-21T07:00:49.698Z,9.53
2022-11-21T07:03:18.478Z,9.52
2022-11-21T07:05:46.507Z,9.51
2022-11-21T07:08:15.971Z,9.50
2022-11-21T07:11:03.403Z,9.50
2022-11-21T07:13:32.646Z,9.48
2022-11-21T07:16:04.422Z,9.47
2022-11-21T07:18:32.539Z,9.47
2022-11-21T07:21:01.270Z,9.47
2022-11-21T07:23:31.499Z,9.44
2022-11-21T07:26:01.814Z,9.43
2022-11-21T07:28:30.780Z,9.43
2022-11-21T07:30:59.589Z,9.42
2022-11-21T07:33:28.702Z,9.40
2022-11-21T07:35:58.049Z,9.39
2022-11-21T07:38:26.699Z,9.36
2022-11-21T07:40:58.199Z,9.35
2022-11-21T07:43:26.709Z,9.35
2022-11-21T07:45:54.783Z,9.34
2022-11-21T07:48:22.792Z,9.34
2022-11-21T07:50:50.860Z,9.33
2022-11-21T07:53:19.160Z,9.35
2022-11-21T07:55:48.055Z,9.35
2022-11-21T07:58:19.241Z,9.35
2022-11-21T08:00:47.563Z,9.36
2022-11-21T08:03:15.721Z,9.37
2022-11-21T08:05:45.407Z,9.37
2022-11-21T08:08:14.710Z,9.40
2022-11-21T08:10:44.370Z,9.39
2022-11-21T08:13:12.901Z,9.39
2022-11-21T08:15:43.175Z,9.38
2022-11-21T08:18:12.834Z,9.38
2022-11-21T08:20:40.957Z,9.38
2022-11-21T08:23:10.326Z,9.38
2022-11-21T08:25:38.992Z,9.38
2022-11-21T08:28:07.941Z,9.37
2022-11-21T08:30:36.592Z,9.37
2022-11-21T08:33:07.620Z,9.35
2022-11-21T08:35:37.672Z,9.36
2022-11-21T08:38:06.344Z,9.36
2022-11-21T08:40:35.516Z,9.38
2022-11-21T08:43:05.262Z,9.38
2022-11-21T08:45:34.064Z,9.42
2022-11-21T08:48:02.292Z,9.43
2022-11-21T08:50:32.117Z,9.47
2022-11-21T08:53:03.867Z,9.50
2022-11-21T08:55:32.172Z,9.53
2022-11-21T08:58:00.253Z,9.58
2022-11-21T09:00:28.480Z,9.64
2022-11-21T09:02:56.524Z,9.68
2022-11-21T09:05:24.699Z,9.72
2022-11-21T09:07:59.258Z,9.75
2022-11-21T09:10:29.165Z,9.78
2022-11-21T09:12:59.354Z,9.81
2022-11-21T09:15:45.034Z,9.84
2022-11-21T09:18:13.276Z,9.87
2022-11-21T09:20:43.445Z,9.90
2022-11-21T09:23:15.465Z,9.94
2022-11-21T09:25:43.887Z,9.97
2022-11-21T09:28:13.628Z,9.99
2022-11-21T09:30:42.554Z,10.02
2022-11-21T09:33:13.212Z,10.04
2022-11-21T09:35:41.319Z,10.06
2022-11-21T09:38:09.511Z,10.07
2022-11-21T09:40:43.202Z,10.07
2022-11-21T09:43:38.374Z,10.08
2022-11-21T09:46:12.321Z,10.09
2022-11-21T09:48:49.905Z,10.10
2022-11-21T09:51:21.464Z,10.10
2022-11-21T09:53:58.212Z,10.12
2022-11-21T09:56:30.279Z,10.15
2022-11-21T09:59:13.547Z,10.17
2022-11-21T10:01:41.596Z,10.18
2022-11-21T10:04:09.780Z,10.20
2022-11-21T10:06:44.832Z,9.91
2022-11-21T10:09:23.741Z,9.49
2022-11-21T10:12:21.500Z,9.24
2022-11-21T10:15:00.227Z,9.18
2022-11-21T10:17:39.212Z,9.18
2022-11-21T10:20:27.608Z,9.24
2022-11-21T10:23:11.431Z,9.33
2022-11-21T10:25:40.487Z,9.37
2022-11-21T10:28:17.915Z,9.34
2022-11-21T10:30:47.981Z,9.33
2022-11-21T10:33:23.160Z,9.30
2022-11-21T10:35:55.096Z,9.30
2022-11-21T10:38:25.431Z,9.34
2022-11-21T10:41:02.250Z,9.41
2022-11-21T10:43:54.482Z,9.47
2022-11-21T10:46:22.528Z,9.56
2022-11-21T10:48:57.027Z,9.63
2022-11-21T10:51:36.981Z,9.74
2022-11-21T10:54:24.968Z,9.83
2022-11-21T10:56:55.319Z,9.89
2022-11-21T10:59:30.765Z,9.90
2022-11-21T11:02:01.185Z,9.85
2022-11-21T11:04:37.565Z,9.82
2022-11-21T11:07:23.404Z,9.72
2022-11-21T11:09:52.592Z,9.57
2022-11-21T11:12:44.949Z,9.54
2022-11-21T11:15:21.020Z,9.37
2022-11-21T11:17:54.509Z,9.22
2022-11-21T11:20:46.367Z,9.22
2022-11-21T11:23:32.037Z,9.26
2022-11-21T11:26:01.552Z,9.28
2022-11-21T11:28:38.201Z,9.37
2022-11-21T11:31:09.302Z,9.44
2022-11-21T11:33:38.558Z,9.52
2022-11-21T11:36:14.234Z,9.62
2022-11-21T11:38:47.217Z,9.67
2022-11-21T11:42:02.273Z,9.70
2022-11-21T11:45:01.821Z,9.77
2022-11-21T11:47:39.382Z,9.85
2022-11-21T11:50:15.642Z,9.93
2022-11-21T11:52:58.223Z,9.99
2022-11-21T11:55:35.197Z,10.03
2022-11-21T11:58:07.959Z,10.01
2022-11-21T12:00:43.733Z,9.86
2022-11-21T12:03:20.548Z,9.73
2022-11-21T12:06:02.526Z,9.74
2022-11-21T12:08:43.163Z,9.81
2022-11-21T12:11:35.550Z,9.92
2022-11-21T12:14:12.225Z,10.03
2022-11-21T12:16:42.555Z,10.09
2022-11-21T12:19:16.771Z,10.12
2022-11-21T12:21:46.087Z,10.14
2022-11-21T12:24:14.210Z,10.15
2022-11-21T12:26:57.360Z,10.19
2022-11-21T12:29:45.119Z,10.23
2022-11-21T12:32:28.183Z,10.27
2022-11-21T12:35:18.201Z,10.37
2022-11-21T12:37:54.376Z,10.49
2022-11-21T12:40:39.176Z,10.41
2022-11-21T12:43:21.610Z,10.36
2022-11-21T12:45:53.696Z,10.36
2022-11-21T12:48:50.197Z,10.31
2022-11-21T12:51:55.795Z,10.23
2022-11-21T12:54:45.507Z,10.30
2022-11-21T12:57:15.234Z,10.35
2022-11-21T13:00:03.288Z,10.42
2022-11-21T13:02:48.221Z,10.41
2022-11-21T13:05:22.458Z,10.43
2022-11-21T13:08:04.204Z,10.41
2022-11-21T13:10:33.385Z,10.44
2022-11-21T13:13:11.111Z,10.44
2022-11-21T13:15:50.280Z,10.39
2022-11-21T13:18:22.688Z,10.35
2022-11-21T13:20:52.209Z,10.32
2022-11-21T13:23:39.789Z,10.29
2022-11-21T13:26:49.756Z,10.29
2022-11-21T13:29:17.910Z,10.25
2022-11-21T13:31:45.943Z,10.27
2022-11-21T13:34:37.510Z,10.42
2022-11-21T13:37:06.406Z,10.59
2022-11-21T13:39:39.902Z,10.71
2022-11-21T13:42:32.752Z,10.77
2022-11-21T13:45:16.329Z,10.81
2022-11-21T13:48:04.841Z,10.80
2022-11-21T13:50:57.385Z,10.66
2022-11-21T13:53:43.264Z,10.53
2022-11-21T13:56:27.595Z,10.50
2022-11-21T13:59:08.360Z,10.48
2022-11-21T14:02:07.709Z,10.47
2022-11-21T14:04:55.033Z,10.47
2022-11-21T14:07:25.815Z,10.54
2022-11-21T14:09:56.954Z,10.63
2022-11-21T14:12:34.383Z,10.67
2022-11-21T14:15:28.061Z,10.69
2022-11-21T14:17:58.631Z,10.67
2022-11-21T14:20:29.341Z,10.67
2022-11-21T14:23:03.423Z,10.57
2022-11-21T14:25:38.162Z,10.45
2022-11-21T14:28:13.044Z,10.36
2022-11-21T14:30:42.941Z,10.29
2022-11-21T14:33:25.075Z,10.22
2022-11-21T14:35:55.558Z,10.18
2022-11-21T14:38:24.465Z,10.19
2022-11-21T14:41:12.392Z,10.21
2022-11-21T14:43:41.898Z,10.20
2022-11-21T14:46:15.617Z,10.19
2022-11-21T14:48:43.918Z,10.17
2022-11-21T14:51:16.123Z,10.13
2022-11-21T14:53:47.245Z,10.10
2022-11-21T14:56:22.638Z,10.09
2022-11-21T14:58:53.223Z,10.06
2022-11-21T15:01:23.216Z,10.07
2022-11-21T15:03:58.733Z,10.12
2022-11-21T15:06:27.228Z,10.20
2022-11-21T15:10:19.317Z,10.22
2022-11-21T15:11:50.835Z,10.18
2022-11-21T15:14:25.856Z,10.08
2022-11-21T15:16:56.237Z,10.00
2022-11-21T15:19:26.900Z,9.94
2022-11-21T15:21:57.620Z,9.89
2022-11-21T15:24:32.406Z,9.86
2022-11-21T15:27:01.095Z,9.82
2022-11-21T15:29:32.002Z,9.81
2022-11-21T15:32:15.810Z,9.77
2022-11-21T15:34:44.892Z,9.72
2022-11-21T15:37:16.483Z,9.69
2022-11-21T15:39:45.856Z,9.65
2022-11-21T15:42:35.828Z,9.63
2022-11-21T15:45:22.933Z,9.58
2022-11-21T15:47:51.330Z,9.57
2022-11-21T15:50:19.397Z,9.62
2022-11-21T15:52:48.842Z,9.65
2022-11-21T15:55:20.472Z,9.59
2022-11-21T15:57:48.709Z,9.22
2022-11-21T16:00:18.958Z,8.65
2022-11-21T16:02:47.435Z,8.31
2022-11-21T16:05:17.292Z,8.07
2022-11-21T16:07:48.543Z,7.97
2022-11-21T16:10:24.368Z,8.03
2022-11-21T16:12:55.812Z,8.15
2022-11-21T16:15:25.864Z,8.24
2022-11-21T16:17:54.272Z,8.31
2022-11-21T16:20:22.570Z,8.40
2022-11-21T16:22:50.567Z,8.45
2022-11-21T16:25:18.687Z,8.49
2022-11-21T16:27:47.211Z,8.48
2022-11-21T16:30:16.021Z,8.47
2022-11-21T16:32:45.470Z,8.46
2022-11-21T16:35:13.471Z,8.48
2022-11-21T16:37:41.511Z,8.51
2022-11-21T16:40:11.413Z,8.27
2022-11-21T16:42:39.570Z,7.89
2022-11-21T16:45:08.146Z,7.63
2022-11-21T16:47:37.555Z,7.36
2022-11-21T16:50:07.733Z,7.20
2022-11-21T16:52:36.697Z,7.17
2022-11-21T16:55:05.559Z,7.27
2022-11-21T16:57:36.861Z,7.38
2022-11-21T17:00:06.070Z,7.49
2022-11-21T17:02:34.165Z,7.58
2022-11-21T17:05:02.183Z,7.72
2022-11-21T17:07:32.216Z,7.96
2022-11-21T17:10:00.155Z,8.11
2022-11-21T17:12:28.361Z,8.23
2022-11-21T17:14:56.364Z,8.31
2022-11-21T17:17:24.363Z,8.38
2022-11-21T17:19:54.583Z,8.46
2022-11-21T17:22:24.757Z,8.52
2022-11-21T17:24:54.950Z,8.51
2022-11-21T17:27:23.662Z,8.51
2022-11-21T17:29:51.724Z,8.46
2022-11-21T17:32:19.927Z,8.43
2022-11-21T17:34:47.893Z,8.40
2022-11-21T17:37:15.943Z,8.40
2022-11-21T17:39:43.943Z,8.40
2022-11-21T17:42:14.552Z,8.45
2022-11-21T17:44:42.525Z,8.50
2022-11-21T17:47:11.540Z,8.60
2022-11-21T17:49:39.552Z,8.68
2022-11-21T17:52:07.930Z,8.78
2022-11-21T17:54:36.176Z,8.85
2022-11-21T17:57:04.192Z,8.88
2022-11-21T17:59:34.793Z,8.81
2022-11-21T18:02:03.290Z,8.65
2022-11-21T18:04:31.668Z,8.53
2022-11-21T18:07:00.016Z,8.49
2022-11-21T18:09:28.487Z,8.50
2022-11-21T18:11:57.814Z,8.57
2022-11-21T18:14:26.396Z,8.66
2022-11-21T18:16:56.594Z,8.48
2022-11-21T18:19:25.098Z,8.18
2022-11-21T18:21:53.095Z,7.99
2022-11-21T18:24:21.224Z,7.90
2022-11-21T18:26:49.463Z,7.87
2022-11-21T18:32:07.599Z,7.73
2022-11-21T18:34:35.670Z,7.74
2022-11-21T18:37:03.742Z,7.84
2022-11-21T18:39:32.032Z,7.90
2022-11-21T18:42:00.216Z,7.93
2022-11-21T18:44:28.272Z,7.98
2022-11-21T18:46:56.260Z,8.05
2022-11-21T18:49:26.015Z,8.11
2022-11-21T18:51:54.132Z,8.17
2022-11-21T18:54:22.169Z,8.24
2022-11-21T18:56:50.259Z,8.33
2022-11-21T18:59:18.309Z,8.40
2022-11-21T19:01:46.417Z,8.27
2022-11-21T19:04:14.608Z,8.18
2022-11-21T19:06:44.087Z,8.18
2022-11-21T19:09:12.843Z,8.25
2022-11-21T19:11:41.045Z,8.34
2022-11-21T19:14:09.178Z,8.42
2022-11-21T19:16:37.325Z,8.49
2022-11-21T19:21:57.174Z,8.61
2022-11-21T19:24:25.234Z,8.70
2022-11-21T19:26:53.547Z,8.77
2022-11-21T19:29:21.695Z,8.81
2022-11-21T19:31:49.942Z,8.86
2022-11-21T19:34:18.549Z,8.90
2022-11-21T19:36:47.046Z,8.95
2022-11-21T19:39:17.564Z,8.97
2022-11-21T19:41:45.769Z,8.95
2022-11-21T19:44:14.069Z,8.96
2022-11-21T19:46:42.264Z,8.97
2022-11-21T19:49:12.326Z,9.00
2022-11-21T19:51:42.458Z,8.99
2022-11-21T19:54:12.596Z,8.99
2022-11-21T19:56:42.125Z,8.98
2022-11-21T19:59:12.578Z,9.00
2022-11-21T20:01:41.107Z,8.99
2022-11-21T20:04:09.775Z,9.00
2022-11-21T20:06:41.088Z,9.02
2022-11-21T20:09:11.306Z,9.03
2022-11-21T20:11:43.840Z,9.05
2022-11-21T20:14:19.699Z,9.06
2022-11-21T20:16:51.716Z,9.10
2022-11-21T20:19:22.583Z,9.07
2022-11-21T20:21:51.360Z,9.02
2022-11-21T20:24:19.609Z,8.97
2022-11-21T20:26:49.396Z,8.93
2022-11-21T20:29:17.550Z,8.90
2022-11-21T20:31:48.290Z,8.86
2022-11-21T20:34:16.498Z,8.78
2022-11-21T20:36:45.399Z,8.50
2022-11-21T20:39:15.344Z,8.22
2022-11-21T20:41:43.539Z,7.98
2022-11-21T20:47:03.442Z,7.57
2022-11-21T20:49:31.977Z,7.50
2022-11-21T20:54:48.390Z,7.40
2022-11-21T20:57:16.615Z,7.37
2022-11-21T20:59:45.993Z,7.36
2022-11-21T21:02:14.943Z,7.37
2022-11-21T21:04:43.359Z,7.36
2022-11-21T21:07:12.314Z,7.37
2022-11-21T21:09:40.809Z,7.43
2022-11-21T21:12:09.667Z,7.54
2022-11-21T21:14:38.134Z,7.66
2022-11-21T21:17:07.628Z,7.77
2022-11-21T21:19:36.203Z,7.86
2022-11-21T21:22:05.155Z,7.96
2022-11-21T21:24:33.308Z,8.07
2022-11-21T21:27:01.451Z,8.15
2022-11-21T21:29:29.967Z,8.26
2022-11-21T21:31:58.292Z,8.34
2022-11-21T21:34:28.491Z,8.40
2022-11-21T21:36:56.836Z,8.41
2022-11-21T21:39:26.117Z,8.43
2022-11-21T21:41:54.311Z,8.49
2022-11-21T21:44:24.994Z,8.54
2022-11-21T21:46:56.529Z,8.57
2022-11-21T21:49:25.153Z,8.60
2022-11-21T21:51:54.656Z,8.64
2022-11-21T21:54:22.779Z,8.65
2022-11-21T21:56:51.258Z,8.63
2022-11-21T21:59:19.851Z,8.59
2022-11-21T22:01:49.212Z,8.54
2022-11-21T22:04:17.339Z,8.51
2022-11-21T22:06:45.350Z,8.55
2022-11-21T22:09:14.814Z,8.55
2022-11-21T22:11:42.804Z,8.56
2022-11-21T22:14:13.965Z,8.61
2022-11-21T22:16:42.547Z,8.66
2022-11-21T22:19:10.878Z,8.67
2022-11-21T22:21:40.038Z,8.66
2022-11-21T22:24:28.475Z,8.65
2022-11-21T22:26:57.982Z,8.66
2022-11-21T22:29:26.481Z,8.66
2022-11-21T22:31:54.577Z,8.66
2022-11-21T22:34:22.867Z,8.66
2022-11-21T22:36:51.139Z,8.67
2022-11-21T22:39:19.160Z,8.69
2022-11-21T22:41:47.276Z,8.72
2022-11-21T22:44:17.185Z,8.55
2022-11-21T22:46:45.172Z,8.14
2022-11-21T22:49:14.381Z,7.84
2022-11-21T22:51:42.407Z,7.65
2022-11-21T22:54:10.655Z,7.57
2022-11-21T22:56:38.676Z,7.54
2022-11-21T22:59:06.912Z,7.53
2022-11-21T23:01:36.379Z,7.56
2022-11-21T23:04:04.544Z,7.58
2022-11-21T23:06:32.686Z,7.62
2022-11-21T23:09:00.798Z,7.66
2022-11-21T23:11:36.356Z,7.72
2022-11-21T23:14:09.127Z,7.72
2022-11-21T23:16:38.701Z,7.77
2022-11-21T23:19:07.103Z,7.84
2022-11-21T23:21:35.579Z,7.91
2022-11-21T23:24:03.684Z,7.95
2022-11-21T23:26:31.690Z,8.01
2022-11-21T23:29:05.082Z,8.07
2022-11-21T23:31:36.167Z,8.20
2022-11-21T23:34:05.885Z,8.30
2022-11-21T23:36:33.968Z,8.38
2022-11-21T23:39:02.021Z,8.42
2022-11-21T23:41:30.133Z,8.42
2022-11-21T23:43:59.914Z,8.44
2022-11-21T23:46:28.307Z,8.48
2022-11-21T23:48:56.346Z,8.50
2022-11-21T23:51:28.693Z,8.44
2022-11-21T23:53:56.777Z,8.34
2022-11-21T23:56:24.839Z,8.27
2022-11-21T23:58:52.840Z,8.21
